»·PEaware :: WAT234 KLAS-KRNO

WAT234 :: KLAS-KRNO

FLIGHT INFORMATION

Flight Status: Arrived
Operator:
Walker Air Transport
More flights by this operator :: More flights under this callsign
Pilot: Eduardo Elias G. (24838)
Aircraft: BOEING 737-800
(B738)
More flights by this aircraft type
Origin: KLAS McCarran Intl
United States
Destination: KRNO Reno/Tahoe Intl
United States
More flights between these airports :: More routes between these airports
Route: SHEAD1 KENNO KENNO2
File this flight plan on PilotEdge
Remarks:
Altitude:
(Current/Filed)
36,000ft
Speed:
(Current/Filed)
475kts
Departed: 14-Sep-20 10:28 AM
Arrived: 14-Sep-20 11:23 AM
Distance/Time
Traveled:
300nm/0:54
Distance/Time
To Go:
Arrived

Flight Plot

Page will automatically refresh every two minutes.

Flight plan parsing failed; only flown route is shown


Map Options




Map Legend


Flown Route
Filed Route
Departure Airport
Arrival Airport
Navaid (VOR, NDB)
Fix

Horizontal Profiles

Position Reports

Time Latitude Longitude Heading Altitude Ground
Speed
14-Sep-20 09:33 36.079539 -115.146716 27 2189ft 0kts
14-Sep-20 09:35 36.079539 -115.146716 27 2189ft 0kts
14-Sep-20 09:36 36.079539 -115.146716 27 2189ft 0kts
14-Sep-20 09:37 36.079539 -115.146716 27 2189ft 0kts
14-Sep-20 09:38 36.079539 -115.146716 27 2189ft 0kts
14-Sep-20 09:40 36.079539 -115.146716 27 2189ft 0kts
14-Sep-20 09:41 36.079539 -115.146716 27 2189ft 0kts
14-Sep-20 09:42 36.079539 -115.146716 27 2189ft 0kts
14-Sep-20 09:43 36.079539 -115.146716 27 2189ft 0kts
14-Sep-20 09:44 36.079539 -115.146716 27 2189ft 0kts
14-Sep-20 09:45 36.079539 -115.146716 27 2189ft 0kts
14-Sep-20 09:46 36.079539 -115.146716 27 2189ft 0kts
14-Sep-20 09:47 36.079539 -115.146716 27 2189ft 0kts
14-Sep-20 09:48 36.079539 -115.146716 27 2189ft 0kts
14-Sep-20 09:49 36.079539 -115.146716 27 2189ft 0kts
14-Sep-20 09:50 36.079539 -115.146716 27 2189ft 0kts
14-Sep-20 09:51 36.079539 -115.146716 27 2189ft 0kts
14-Sep-20 09:52 36.079539 -115.146716 27 2189ft 0kts
14-Sep-20 09:53 36.079539 -115.146716 27 2189ft 0kts
14-Sep-20 09:54 36.079539 -115.146716 27 2189ft 0kts
14-Sep-20 09:55 36.079539 -115.146716 27 2189ft 0kts
14-Sep-20 09:59 36.080247 -115.147307 58 2189ft 0kts
14-Sep-20 10:00 36.080247 -115.147307 58 2189ft 0kts
14-Sep-20 10:02 36.080247 -115.147307 58 2189ft 0kts
14-Sep-20 10:02 36.080247 -115.147307 58 2189ft 0kts
14-Sep-20 10:03 36.080247 -115.147307 58 2189ft 0kts
14-Sep-20 10:04 36.080247 -115.147307 58 2189ft 0kts
14-Sep-20 10:05 36.080247 -115.147307 58 2189ft 0kts
14-Sep-20 10:06 36.080247 -115.147307 58 2189ft 0kts
14-Sep-20 10:07 36.080247 -115.147307 58 2189ft 0kts
14-Sep-20 10:08 36.080247 -115.147307 58 2189ft 0kts
14-Sep-20 10:09 36.080247 -115.147307 58 2189ft 0kts
14-Sep-20 10:10 36.080247 -115.147307 58 2189ft 0kts
14-Sep-20 10:11 36.080247 -115.147307 58 2189ft 0kts
14-Sep-20 10:12 36.080123 -115.147876 113 2189ft 2kts
14-Sep-20 10:13 36.080395 -115.148130 155 2189ft 0kts
14-Sep-20 10:14 36.080395 -115.148130 155 2189ft 0kts
14-Sep-20 10:15 36.080395 -115.148130 155 2189ft 0kts
14-Sep-20 10:16 36.080395 -115.148130 155 2189ft 0kts
14-Sep-20 10:17 36.078960 -115.147315 159 2189ft 7kts
14-Sep-20 10:18 36.077648 -115.144903 95 2189ft 11kts
14-Sep-20 10:19 36.077544 -115.140490 90 2189ft 13kts
14-Sep-20 10:20 36.077548 -115.136041 89 2189ft 11kts
14-Sep-20 10:21 36.077550 -115.132261 90 2189ft 10kts
14-Sep-20 10:22 36.077555 -115.127899 89 2189ft 14kts
14-Sep-20 10:23 36.077553 -115.122729 87 2189ft 11kts
14-Sep-20 10:24 36.077556 -115.121819 94 2189ft 0kts
14-Sep-20 10:25 36.076994 -115.121205 181 2189ft 8kts
14-Sep-20 10:26 36.076428 -115.122812 268 2189ft 38kts
14-Sep-20 10:27 36.075843 -115.169974 269 3074ft 179kts
14-Sep-20 10:28 36.075398 -115.240632 268 4704ft 248kts
14-Sep-20 10:29 36.026765 -115.295038 177 6867ft 271kts
14-Sep-20 10:30 35.955045 -115.317080 219 7295ft 278kts
14-Sep-20 10:31 35.900925 -115.386878 225 9022ft 287kts
14-Sep-20 10:32 35.886605 -115.483033 270 10731ft 306kts
14-Sep-20 10:33 35.889510 -115.599995 268 11235ft 361kts
14-Sep-20 10:34 35.891982 -115.724610 269 14117ft 371kts
14-Sep-20 10:35 35.893989 -115.854170 270 16607ft 384kts
14-Sep-20 10:36 35.910862 -115.983945 303 18819ft 397kts
14-Sep-20 10:37 35.990241 -116.081310 317 20910ft 407kts
14-Sep-20 10:38 36.074329 -116.177142 316 22748ft 416kts
14-Sep-20 10:39 36.160086 -116.276129 316 24385ft 425kts
14-Sep-20 10:40 36.224361 -116.350017 316 25513ft 431kts
14-Sep-20 10:41 36.312578 -116.452424 315 26939ft 439kts
14-Sep-20 10:42 36.402318 -116.557348 314 28236ft 446kts
14-Sep-20 10:43 36.493349 -116.663824 314 29438ft 452kts
14-Sep-20 10:44 36.588975 -116.766329 324 30819ft 455kts
14-Sep-20 10:45 36.696462 -116.848645 325 32378ft 450kts
14-Sep-20 10:46 36.802637 -116.929624 325 33801ft 444kts
14-Sep-20 10:47 36.907801 -117.009739 325 35080ft 441kts
14-Sep-20 10:48 37.012284 -117.089672 324 36170ft 440kts
14-Sep-20 10:49 37.118367 -117.170987 324 36278ft 454kts
14-Sep-20 10:50 37.227183 -117.255131 325 36288ft 458kts
14-Sep-20 10:51 37.331656 -117.345516 316 36299ft 455kts
14-Sep-20 10:52 37.427989 -117.448871 316 36327ft 455kts
14-Sep-20 10:53 37.527650 -117.546969 324 36343ft 458kts
14-Sep-20 10:54 37.636035 -117.632448 325 36345ft 458kts
14-Sep-20 10:55 37.743671 -117.718058 325 36315ft 458kts
14-Sep-20 10:56 37.851490 -117.803628 325 36313ft 457kts
14-Sep-20 10:57 37.959170 -117.889585 325 36309ft 458kts
14-Sep-20 10:58 38.065778 -117.975104 325 36303ft 444kts
14-Sep-20 10:59 38.171574 -118.060060 325 36148ft 456kts
14-Sep-20 11:00 38.277866 -118.145975 326 34001ft 445kts
14-Sep-20 11:01 38.380435 -118.229300 326 32056ft 431kts
14-Sep-20 11:02 38.470870 -118.325256 314 30157ft 418kts
14-Sep-20 11:03 38.553735 -118.427598 314 28379ft 407kts
14-Sep-20 11:04 38.633602 -118.526758 314 26525ft 400kts
14-Sep-20 11:05 38.712591 -118.625152 314 24740ft 392kts
14-Sep-20 11:06 38.790575 -118.722278 314 23107ft 390kts
14-Sep-20 11:07 38.867404 -118.817650 314 21502ft 378kts
14-Sep-20 11:08 38.942059 -118.910928 314 19946ft 371kts
14-Sep-20 11:09 39.015204 -119.002945 314 18426ft 364kts
14-Sep-20 11:10 39.087630 -119.094089 313 16910ft 361kts
14-Sep-20 11:11 39.157676 -119.182502 313 16294ft 347kts
14-Sep-20 11:12 39.224063 -119.266237 313 15227ft 334kts
14-Sep-20 11:13 39.289881 -119.349613 312 13568ft 325kts
14-Sep-20 11:14 39.353562 -119.429755 315 12127ft 313kts
14-Sep-20 11:15 39.424153 -119.495993 321 10997ft 308kts
14-Sep-20 11:16 39.492171 -119.559604 321 10032ft 291kts
14-Sep-20 11:17 39.554727 -119.618093 321 8789ft 279kts
14-Sep-20 11:18 39.599698 -119.689363 280 7384ft 239kts
14-Sep-20 11:19 39.588035 -119.759883 211 5929ft 193kts
14-Sep-20 11:20 39.538180 -119.766658 180 5018ft 169kts
14-Sep-20 11:21 39.496113 -119.766804 176 4423ft 58kts
14-Sep-20 11:22 39.489784 -119.766868 196 4423ft 21kts
14-Sep-20 11:23 39.489370 -119.771348 303 4423ft 12kts
14-Sep-20 11:24 39.493744 -119.771530 0 4423ft 16kts
14-Sep-20 11:25 39.497854 -119.771533 359 4423ft 12kts
14-Sep-20 11:26 39.501841 -119.771509 0 4423ft 18kts
14-Sep-20 11:27 39.504224 -119.772758 353 4423ft 4kts
14-Sep-20 11:28 39.504500 -119.772795 354 4423ft 0kts
14-Sep-20 11:29 39.504500 -119.772795 354 4423ft 0kts
14-Sep-20 11:30 39.504500 -119.772795 354 4423ft 0kts
14-Sep-20 11:31 39.504500 -119.772795 354 4423ft 0kts
14-Sep-20 11:32 39.504500 -119.772795 354 4423ft 0kts
14-Sep-20 11:33 39.504500 -119.772795 354 4423ft 0kts
14-Sep-20 11:34 39.504500 -119.772795 354 4423ft 0kts
14-Sep-20 11:35 39.504500 -119.772795 354 4423ft 0kts
14-Sep-20 11:36 39.504500 -119.772795 354 4423ft 0kts

Navigation Log

Ident Type
Flight plan parsing failed, navigation log unavailable